createdAt,value
2022-08-16T00:01:11.587Z,10.20
2022-08-16T00:03:39.144Z,9.60
2022-08-16T00:06:07.822Z,8.90
2022-08-16T00:08:37.639Z,9.85
2022-08-16T00:11:15.478Z,9.10
2022-08-16T00:13:54.360Z,8.38
2022-08-16T00:17:00.905Z,9.65
2022-08-16T00:19:16.462Z,8.10
2022-08-16T00:21:43.758Z,8.85
2022-08-16T00:24:11.589Z,10.48
2022-08-16T00:26:44.042Z,8.95
2022-08-16T00:29:16.259Z,10.05
2022-08-16T00:31:58.792Z,9.53
2022-08-16T00:34:44.988Z,8.88
2022-08-16T00:37:17.210Z,8.70
2022-08-16T00:39:47.286Z,8.63
2022-08-16T00:42:29.651Z,8.77
2022-08-16T00:45:06.371Z,9.33
2022-08-16T00:47:35.967Z,8.98
2022-08-16T00:50:05.188Z,8.75
2022-08-16T00:52:50.420Z,8.65
2022-08-16T00:55:17.921Z,9.27
2022-08-16T00:57:58.621Z,10.20
2022-08-16T01:00:29.275Z,8.73
2022-08-16T01:02:58.861Z,9.90
2022-08-16T01:05:25.636Z,8.85
2022-08-16T01:07:54.166Z,10.48
2022-08-16T01:10:32.035Z,11.07
2022-08-16T01:13:07.038Z,10.75
2022-08-16T01:15:37.594Z,9.95
2022-08-16T01:18:39.023Z,9.77
2022-08-16T01:21:22.225Z,10.50
2022-08-16T01:24:01.303Z,9.30
2022-08-16T01:26:35.571Z,9.32
2022-08-16T01:29:05.592Z,11.45
2022-08-16T01:31:37.610Z,9.15
2022-08-16T01:34:22.985Z,9.45
2022-08-16T01:37:09.358Z,11.80
2022-08-16T01:39:36.787Z,10.77
2022-08-16T01:42:12.126Z,8.50
2022-08-16T01:44:40.939Z,10.43
2022-08-16T01:47:08.117Z,9.73
2022-08-16T01:49:43.676Z,10.50
2022-08-16T01:52:27.949Z,12.02
2022-08-16T01:54:57.748Z,9.40
2022-08-16T01:57:24.768Z,9.55
2022-08-16T01:59:54.464Z,9.25
2022-08-16T02:02:27.192Z,7.80
2022-08-16T02:04:57.552Z,8.25
2022-08-16T02:07:24.510Z,7.85
2022-08-16T02:09:57.007Z,8.20
2022-08-16T02:12:43.600Z,9.23
2022-08-16T02:15:25.234Z,8.73
2022-08-16T02:17:53.391Z,8.35
2022-08-16T02:20:26.290Z,9.63
2022-08-16T02:22:55.576Z,8.60
2022-08-16T02:25:22.976Z,8.77
2022-08-16T02:27:51.482Z,10.27
2022-08-16T02:30:37.171Z,8.82
2022-08-16T02:33:10.768Z,8.48
2022-08-16T02:35:49.935Z,8.30
2022-08-16T02:38:22.334Z,8.57
2022-08-16T02:40:49.035Z,7.60
2022-08-16T02:43:16.142Z,7.20
2022-08-16T02:45:42.864Z,8.65
2022-08-16T02:48:30.551Z,7.13
2022-08-16T02:51:06.398Z,6.90
2022-08-16T02:53:40.995Z,8.10
2022-08-16T02:56:12.362Z,8.30
2022-08-16T02:58:44.110Z,6.45
2022-08-16T03:01:24.007Z,7.43
2022-08-16T03:04:41.105Z,7.03
2022-08-16T03:06:43.239Z,6.80
2022-08-16T03:09:13.793Z,8.13
2022-08-16T03:11:42.198Z,7.22
2022-08-16T03:14:09.108Z,7.35
2022-08-16T03:16:42.219Z,8.57
2022-08-16T03:19:25.902Z,8.23
2022-08-16T03:22:12.560Z,8.55
2022-08-16T03:24:46.429Z,7.22
2022-08-16T03:27:13.506Z,7.25
2022-08-16T03:29:40.473Z,7.53
2022-08-16T03:32:21.473Z,8.50
2022-08-16T03:34:49.917Z,7.53
2022-08-16T03:37:17.190Z,6.68
2022-08-16T03:39:44.194Z,8.00
2022-08-16T03:42:10.850Z,7.22
2022-08-16T03:44:43.364Z,7.83
2022-08-16T03:47:19.023Z,6.65
2022-08-16T03:49:51.783Z,6.57
2022-08-16T03:52:23.370Z,7.00
2022-08-16T03:54:53.371Z,6.75
2022-08-16T03:57:24.794Z,7.77
2022-08-16T03:59:59.251Z,6.75
2022-08-16T04:02:31.627Z,7.10
2022-08-16T04:04:58.689Z,6.75
2022-08-16T04:07:25.431Z,6.18
2022-08-16T04:09:52.306Z,7.57
2022-08-16T04:12:53.795Z,7.32
2022-08-16T04:15:08.713Z,6.90
2022-08-16T04:17:36.886Z,7.20
2022-08-16T04:20:29.498Z,7.32
2022-08-16T04:22:56.109Z,6.33
2022-08-16T04:25:23.654Z,7.72
2022-08-16T04:27:55.716Z,6.03
2022-08-16T04:30:31.861Z,7.07
2022-08-16T04:32:59.571Z,7.28
2022-08-16T04:35:26.443Z,6.03
2022-08-16T04:38:00.709Z,7.47
2022-08-16T04:40:38.462Z,7.53
2022-08-16T04:43:05.768Z,8.48
2022-08-16T04:45:35.724Z,8.63
2022-08-16T04:48:03.789Z,7.53
2022-08-16T04:50:30.731Z,7.00
2022-08-16T04:52:59.091Z,6.95
2022-08-16T04:55:37.720Z,7.80
2022-08-16T04:58:45.254Z,7.15
2022-08-16T05:00:52.803Z,9.53
2022-08-16T05:03:20.572Z,8.40
2022-08-16T05:05:55.799Z,8.57
2022-08-16T05:08:31.083Z,6.93
2022-08-16T05:11:05.789Z,9.07
2022-08-16T05:13:41.092Z,9.10
2022-08-16T05:16:20.313Z,8.18
2022-08-16T05:18:49.740Z,8.27
2022-08-16T05:21:16.880Z,8.15
2022-08-16T05:23:56.031Z,7.97
2022-08-16T05:26:28.298Z,8.03
2022-08-16T05:28:56.849Z,8.07
2022-08-16T05:31:29.299Z,8.10
2022-08-16T05:34:00.571Z,10.02
2022-08-16T05:36:34.150Z,9.90
2022-08-16T05:39:08.840Z,9.67
2022-08-16T05:41:45.361Z,9.15
2022-08-16T05:44:23.684Z,8.63
2022-08-16T05:46:56.530Z,9.82
2022-08-16T05:49:24.410Z,10.63
2022-08-16T05:51:52.976Z,10.17
2022-08-16T05:54:25.028Z,10.13
2022-08-16T05:56:52.981Z,11.07
2022-08-16T05:59:20.070Z,10.05
2022-08-16T06:01:50.676Z,9.93
2022-08-16T06:04:35.655Z,10.13
2022-08-16T06:07:08.234Z,10.05
2022-08-16T06:09:42.962Z,10.77
2022-08-16T06:12:12.638Z,10.30
2022-08-16T06:14:57.259Z,10.20
2022-08-16T06:17:25.523Z,9.90
2022-08-16T06:20:14.072Z,9.68
2022-08-16T06:22:40.705Z,10.55
2022-08-16T06:25:12.909Z,9.65
2022-08-16T06:27:42.073Z,10.05
2022-08-16T06:30:24.414Z,9.90
2022-08-16T06:32:55.664Z,9.48
2022-08-16T06:35:22.437Z,10.48
2022-08-16T06:37:51.385Z,10.65
2022-08-16T06:40:19.649Z,9.88
2022-08-16T06:42:47.668Z,12.63
2022-08-16T06:45:14.951Z,10.10
2022-08-16T06:47:53.656Z,9.75
2022-08-16T06:50:28.947Z,9.23
2022-08-16T06:53:01.165Z,9.95
2022-08-16T06:55:35.371Z,9.97
2022-08-16T06:58:08.132Z,10.82
2022-08-16T07:00:37.757Z,9.60
2022-08-16T07:03:27.501Z,10.85
2022-08-16T07:05:53.054Z,10.82
2022-08-16T07:08:20.800Z,9.03
2022-08-16T07:10:47.467Z,10.02
2022-08-16T07:13:19.737Z,10.13
2022-08-16T07:16:03.193Z,9.07
2022-08-16T07:18:29.876Z,10.45
2022-08-16T07:21:01.826Z,9.83
2022-08-16T07:23:37.214Z,10.73
2022-08-16T07:26:08.796Z,10.57
2022-08-16T07:28:36.144Z,9.63
2022-08-16T07:31:03.374Z,9.73
2022-08-16T07:33:53.610Z,9.90
2022-08-16T07:36:22.722Z,9.65
2022-08-16T07:38:50.210Z,10.35
2022-08-16T07:41:17.490Z,9.45
2022-08-16T07:43:46.200Z,10.77
2022-08-16T07:46:38.077Z,11.53
2022-08-16T07:49:03.745Z,11.27
2022-08-16T07:51:37.164Z,11.27
2022-08-16T07:54:10.007Z,11.50
2022-08-16T07:56:38.081Z,13.50
2022-08-16T07:59:05.902Z,10.57
2022-08-16T08:01:32.963Z,12.50
2022-08-16T08:04:02.848Z,12.02
2022-08-16T08:06:31.365Z,13.48
2022-08-16T08:08:59.343Z,12.05
2022-08-16T08:11:28.099Z,13.47
2022-08-16T08:13:56.692Z,12.93
2022-08-16T08:16:30.481Z,11.30
2022-08-16T08:19:00.439Z,11.20
2022-08-16T08:22:01.380Z,12.93
2022-08-16T08:24:17.658Z,10.27
2022-08-16T08:26:44.821Z,10.20
2022-08-16T08:29:22.958Z,10.98
2022-08-16T08:31:52.832Z,10.82
2022-08-16T08:34:21.135Z,11.27
2022-08-16T08:36:50.139Z,10.90
2022-08-16T08:39:21.625Z,11.52
2022-08-16T08:41:49.612Z,10.35
2022-08-16T08:44:28.291Z,11.95
2022-08-16T08:47:00.319Z,9.98
2022-08-16T08:49:47.059Z,10.63
2022-08-16T08:52:33.770Z,11.48
2022-08-16T08:55:10.459Z,8.93
2022-08-16T08:57:40.751Z,10.00
2022-08-16T09:00:13.025Z,12.85
2022-08-16T09:02:42.595Z,10.43
2022-08-16T09:05:15.753Z,10.65
2022-08-16T09:08:00.941Z,11.45
2022-08-16T09:10:30.469Z,11.32
2022-08-16T09:12:58.663Z,10.95
2022-08-16T09:15:31.146Z,11.63
2022-08-16T09:18:00.239Z,10.70
2022-08-16T09:20:30.428Z,10.48
2022-08-16T09:22:58.808Z,12.73
2022-08-16T09:25:34.291Z,11.25
2022-08-16T09:28:08.896Z,10.77
2022-08-16T09:30:44.169Z,10.07
2022-08-16T09:33:14.563Z,9.25
2022-08-16T09:35:42.610Z,11.60
2022-08-16T09:38:12.319Z,10.20
2022-08-16T09:40:43.169Z,11.30
2022-08-16T09:43:44.742Z,13.73
2022-08-16T09:45:59.107Z,11.40
2022-08-16T09:48:44.434Z,10.27
2022-08-16T09:51:12.934Z,10.77
2022-08-16T09:53:39.812Z,9.63
2022-08-16T09:56:32.503Z,11.52
2022-08-16T09:59:05.743Z,9.60
2022-08-16T10:01:43.597Z,10.00
2022-08-16T10:04:31.411Z,9.88
2022-08-16T10:09:44.781Z,9.52
2022-08-16T10:12:42.411Z,11.73
2022-08-16T10:15:15.674Z,8.63
2022-08-16T10:17:43.652Z,8.48
2022-08-16T10:20:18.345Z,8.33
2022-08-16T10:22:46.011Z,8.75
2022-08-16T10:27:03.678Z,9.15
2022-08-16T10:28:27.894Z,10.02
2022-08-16T10:30:47.432Z,8.48
2022-08-16T10:33:23.414Z,9.03
2022-08-16T10:35:50.249Z,8.20
2022-08-16T10:38:27.358Z,8.48
2022-08-16T10:40:54.676Z,8.88
2022-08-16T10:43:21.415Z,8.23
2022-08-16T10:46:00.851Z,8.13
2022-08-16T10:48:29.182Z,8.35
2022-08-16T10:50:58.762Z,7.93
2022-08-16T10:53:33.182Z,8.80
2022-08-16T10:56:02.733Z,8.10
2022-08-16T10:58:34.004Z,10.80
2022-08-16T11:01:25.044Z,7.45
2022-08-16T11:03:54.140Z,9.00
2022-08-16T11:06:26.943Z,8.40
2022-08-16T11:14:29.701Z,8.70
2022-08-16T11:17:02.330Z,8.15
2022-08-16T11:20:00.073Z,10.20
2022-08-16T11:22:39.293Z,12.18
2022-08-16T11:25:17.472Z,8.93
2022-08-16T11:27:57.592Z,8.07
2022-08-16T11:30:37.752Z,9.55
2022-08-16T11:33:07.096Z,9.50
2022-08-16T11:38:47.315Z,10.17
2022-08-16T11:41:09.835Z,10.40
2022-08-16T11:43:39.168Z,10.98
2022-08-16T11:46:43.236Z,10.13
2022-08-16T11:48:58.227Z,10.90
2022-08-16T11:51:24.833Z,9.87
2022-08-16T11:53:51.698Z,11.20
2022-08-16T11:56:19.817Z,9.65
2022-08-16T11:59:05.967Z,10.38
2022-08-16T12:01:55.527Z,12.48
2022-08-16T12:04:22.187Z,10.33
2022-08-16T12:06:49.396Z,9.80
2022-08-16T12:09:16.664Z,11.23
2022-08-16T12:11:44.851Z,12.23
2022-08-16T12:14:14.223Z,10.63
2022-08-16T12:16:48.696Z,10.43
2022-08-16T12:19:21.970Z,9.10
2022-08-16T12:22:00.923Z,9.63
2022-08-16T12:24:32.430Z,9.65
2022-08-16T12:26:59.995Z,9.70
2022-08-16T12:29:29.396Z,10.33
2022-08-16T12:32:00.490Z,9.00
2022-08-16T12:34:29.498Z,12.65
2022-08-16T12:36:56.465Z,11.13
2022-08-16T12:39:23.715Z,10.05
2022-08-16T12:41:56.553Z,10.23
2022-08-16T12:44:26.627Z,10.80
2022-08-16T12:47:17.078Z,9.98
2022-08-16T12:49:43.697Z,9.38
2022-08-16T12:52:33.888Z,10.65
2022-08-16T12:54:58.709Z,8.30
2022-08-16T12:57:25.575Z,9.00
2022-08-16T13:00:12.825Z,10.23
2022-08-16T13:02:54.291Z,9.32
2022-08-16T13:05:21.533Z,8.48
2022-08-16T13:07:51.324Z,8.97
2022-08-16T13:10:21.529Z,9.48
2022-08-16T13:13:06.187Z,9.63
2022-08-16T13:15:32.927Z,9.85
2022-08-16T13:18:27.543Z,8.80
2022-08-16T13:21:03.269Z,9.50
2022-08-16T13:23:29.910Z,7.50
2022-08-16T13:25:57.400Z,8.95
2022-08-16T13:28:24.189Z,8.73
2022-08-16T13:30:53.652Z,8.88
2022-08-16T13:33:36.870Z,9.90
2022-08-16T13:36:07.172Z,8.48
2022-08-16T13:38:49.197Z,8.35
2022-08-16T13:41:16.031Z,9.05
2022-08-16T13:43:43.079Z,10.02
2022-08-16T13:46:09.866Z,9.30
2022-08-16T13:48:44.419Z,9.18
2022-08-16T13:51:17.172Z,8.57
2022-08-16T13:53:54.640Z,6.85
2022-08-16T13:56:37.566Z,8.13
2022-08-16T13:59:19.311Z,7.63
2022-08-16T14:01:55.211Z,7.80
2022-08-16T14:04:26.581Z,8.32
2022-08-16T14:06:55.027Z,8.45
2022-08-16T14:09:23.430Z,8.07
2022-08-16T14:11:53.705Z,8.17
2022-08-16T14:14:29.284Z,7.75
2022-08-16T14:17:01.229Z,8.15
2022-08-16T14:19:29.712Z,8.07
2022-08-16T14:22:14.091Z,7.25
2022-08-16T14:24:47.006Z,7.80
2022-08-16T14:27:17.123Z,6.53
2022-08-16T14:29:45.000Z,8.13
2022-08-16T14:32:27.103Z,8.00
2022-08-16T14:34:59.864Z,6.50
2022-08-16T14:37:26.815Z,7.47
2022-08-16T14:39:55.135Z,7.78
2022-08-16T14:42:23.688Z,7.40
2022-08-16T14:44:52.193Z,7.28
2022-08-16T14:47:20.782Z,7.20
2022-08-16T14:49:47.362Z,6.17
2022-08-16T14:52:20.463Z,6.38
2022-08-16T14:55:04.804Z,6.65
2022-08-16T14:57:31.510Z,8.07
2022-08-16T15:00:04.733Z,6.95
2022-08-16T15:02:35.097Z,6.20
2022-08-16T15:05:04.368Z,7.43
2022-08-16T15:07:34.967Z,6.63
2022-08-16T15:10:03.609Z,6.55
2022-08-16T15:12:33.306Z,8.15
2022-08-16T15:15:04.443Z,6.63
2022-08-16T15:17:39.563Z,6.72
2022-08-16T15:20:08.824Z,6.70
2022-08-16T15:22:41.517Z,6.40
2022-08-16T15:25:17.722Z,7.80
2022-08-16T15:27:45.546Z,7.70
2022-08-16T15:30:56.676Z,6.32
2022-08-16T15:33:13.339Z,6.63
2022-08-16T15:35:40.076Z,8.48
2022-08-16T15:38:08.978Z,6.50
2022-08-16T15:40:37.148Z,9.27
2022-08-16T15:43:21.794Z,7.70
2022-08-16T15:46:12.568Z,7.65
2022-08-16T15:48:59.401Z,8.98
2022-08-16T15:51:26.015Z,7.05
2022-08-16T15:54:20.934Z,13.77
2022-08-16T15:56:43.237Z,7.05
2022-08-16T15:59:13.102Z,11.48
2022-08-16T16:01:40.508Z,12.07
2022-08-16T16:04:07.206Z,10.52
2022-08-16T16:06:35.229Z,8.30
2022-08-16T16:09:02.376Z,6.70
2022-08-16T16:11:29.033Z,13.32
2022-08-16T16:13:57.913Z,5.93
2022-08-16T16:16:24.703Z,8.70
2022-08-16T16:18:52.073Z,8.73
2022-08-16T16:21:20.341Z,6.65
2022-08-16T16:23:55.081Z,11.73
2022-08-16T16:26:26.848Z,9.13
2022-08-16T16:29:08.085Z,9.43
2022-08-16T16:31:41.583Z,5.57
2022-08-16T16:34:11.570Z,10.07
2022-08-16T16:36:39.814Z,8.95
2022-08-16T16:39:10.842Z,8.30
2022-08-16T16:41:40.145Z,8.95
2022-08-16T16:44:08.909Z,15.83
2022-08-16T16:46:42.415Z,12.35
2022-08-16T16:49:11.305Z,9.60
2022-08-16T16:51:44.713Z,11.75
2022-08-16T16:54:27.437Z,10.88
2022-08-16T16:56:56.110Z,8.57
2022-08-16T16:59:23.578Z,7.32
2022-08-16T17:01:57.547Z,11.65
2022-08-16T17:04:37.823Z,8.75
2022-08-16T17:07:10.656Z,9.13
2022-08-16T17:09:40.479Z,8.57
2022-08-16T17:12:08.851Z,10.40
2022-08-16T17:14:35.699Z,10.02
2022-08-16T17:17:08.484Z,13.35
2022-08-16T17:19:40.154Z,9.65
2022-08-16T17:22:14.141Z,12.77
2022-08-16T17:24:45.256Z,7.55
2022-08-16T17:27:18.027Z,9.00
2022-08-16T17:29:51.468Z,9.35
2022-08-16T17:32:33.983Z,10.40
2022-08-16T17:35:13.987Z,9.43
2022-08-16T17:37:51.732Z,12.68
2022-08-16T17:40:26.918Z,13.55
2022-08-16T17:43:12.561Z,14.80
2022-08-16T17:45:40.193Z,22.33
2022-08-16T17:48:06.851Z,12.93
2022-08-16T17:50:33.593Z,16.35
2022-08-16T17:53:00.757Z,17.05
2022-08-16T17:55:33.358Z,10.13
2022-08-16T17:58:00.506Z,11.38
2022-08-16T18:00:29.010Z,8.27
2022-08-16T18:03:00.270Z,12.00
2022-08-16T18:05:28.555Z,5.95
2022-08-16T18:07:55.326Z,9.60
2022-08-16T18:10:32.462Z,7.07
2022-08-16T18:13:00.830Z,8.27
2022-08-16T18:15:28.157Z,10.45
2022-08-16T18:17:54.824Z,12.48
2022-08-16T18:20:41.798Z,8.63
2022-08-16T18:23:13.858Z,5.82
2022-08-16T18:25:44.035Z,6.50
2022-08-16T18:28:11.352Z,10.45
2022-08-16T18:30:38.450Z,9.32
2022-08-16T18:33:05.161Z,8.88
2022-08-16T18:35:32.289Z,8.40
2022-08-16T18:37:58.934Z,6.53
2022-08-16T18:40:26.416Z,5.93
2022-08-16T18:43:02.271Z,6.97
2022-08-16T18:45:35.334Z,6.32
2022-08-16T18:48:04.674Z,8.77
2022-08-16T18:50:59.632Z,6.33
2022-08-16T18:53:19.719Z,8.00
2022-08-16T18:55:47.539Z,5.63
2022-08-16T18:58:14.462Z,5.88
2022-08-16T19:00:50.512Z,5.82
2022-08-16T19:03:26.232Z,8.13
2022-08-16T19:06:02.312Z,5.90
2022-08-16T19:08:29.239Z,5.82
2022-08-16T19:10:55.904Z,7.80
2022-08-16T19:13:24.539Z,8.32
2022-08-16T19:15:53.559Z,7.07
2022-08-16T19:18:20.497Z,6.32
2022-08-16T19:20:47.721Z,6.82
2022-08-16T19:23:19.892Z,5.97
2022-08-16T19:25:52.990Z,5.78
2022-08-16T19:28:51.138Z,5.67
2022-08-16T19:31:18.313Z,6.85
2022-08-16T19:33:54.200Z,7.05
2022-08-16T19:36:35.665Z,7.00
2022-08-16T19:39:06.209Z,5.85
2022-08-16T19:41:40.496Z,7.10
2022-08-16T19:44:07.839Z,6.65
2022-08-16T19:46:35.516Z,6.47
2022-08-16T19:49:02.359Z,6.35
2022-08-16T19:51:29.069Z,7.63
2022-08-16T19:53:55.791Z,5.80
2022-08-16T19:56:25.577Z,6.70
2022-08-16T19:59:17.469Z,8.02
2022-08-16T20:01:42.350Z,5.82
2022-08-16T20:04:12.306Z,8.95
2022-08-16T20:06:39.662Z,5.87
2022-08-16T20:09:06.949Z,5.65
2022-08-16T20:11:34.868Z,7.03
2022-08-16T20:14:02.516Z,7.05
2022-08-16T20:16:29.563Z,6.20
2022-08-16T20:18:56.210Z,6.50
2022-08-16T20:21:22.935Z,7.18
2022-08-16T20:23:49.609Z,6.47
2022-08-16T20:26:16.287Z,6.97
2022-08-16T20:28:53.966Z,5.82
2022-08-16T20:31:25.606Z,5.50
2022-08-16T20:33:53.275Z,6.18
2022-08-16T20:36:19.873Z,5.75
2022-08-16T20:38:47.681Z,6.10
2022-08-16T20:41:15.536Z,7.18
2022-08-16T20:43:42.251Z,7.00
2022-08-16T20:46:08.881Z,6.93
2022-08-16T20:48:35.736Z,7.15
2022-08-16T20:51:02.343Z,6.38
2022-08-16T20:53:28.946Z,6.07
2022-08-16T20:55:56.289Z,7.03
2022-08-16T20:58:22.887Z,7.78
2022-08-16T21:00:50.128Z,6.18
2022-08-16T21:03:16.858Z,7.07
2022-08-16T21:05:45.298Z,7.82
2022-08-16T21:08:50.569Z,5.90
2022-08-16T21:11:00.918Z,6.70
2022-08-16T21:13:30.673Z,5.85
2022-08-16T21:15:58.758Z,7.60
2022-08-16T21:18:25.421Z,7.60
2022-08-16T21:20:52.752Z,6.63
2022-08-16T21:23:19.825Z,6.05
2022-08-16T21:25:58.043Z,7.50
2022-08-16T21:28:39.135Z,6.07
2022-08-16T21:31:14.044Z,6.50
2022-08-16T21:33:41.011Z,7.00
2022-08-16T21:36:08.095Z,6.38
2022-08-16T21:38:34.937Z,6.80
2022-08-16T21:41:03.057Z,6.03
2022-08-16T21:43:32.705Z,6.82
2022-08-16T21:46:00.801Z,6.13
2022-08-16T21:48:35.823Z,7.05
2022-08-16T21:51:08.269Z,6.47
2022-08-16T21:53:35.815Z,5.90
2022-08-16T21:56:03.337Z,5.60
2022-08-16T21:58:30.881Z,6.37
2022-08-16T22:00:57.872Z,6.22
2022-08-16T22:03:25.065Z,6.50
2022-08-16T22:06:10.092Z,6.40
2022-08-16T22:08:50.396Z,6.20
2022-08-16T22:11:24.500Z,7.20
2022-08-16T22:13:57.811Z,6.13
2022-08-16T22:16:31.011Z,7.47
2022-08-16T22:18:58.013Z,6.40
2022-08-16T22:21:25.039Z,6.03
2022-08-16T22:23:57.953Z,6.87
2022-08-16T22:26:31.067Z,8.25
2022-08-16T22:29:00.007Z,6.85
2022-08-16T22:31:27.420Z,6.63
2022-08-16T22:33:54.110Z,7.28
2022-08-16T22:36:20.721Z,6.53
2022-08-16T22:38:56.673Z,7.10
2022-08-16T22:41:25.481Z,6.47
2022-08-16T22:43:52.653Z,6.45
2022-08-16T22:46:19.851Z,7.20
2022-08-16T22:48:50.434Z,7.30
2022-08-16T22:51:18.564Z,7.20
2022-08-16T22:53:45.186Z,6.63
2022-08-16T22:56:11.830Z,6.50
2022-08-16T22:58:38.435Z,8.55
2022-08-16T23:01:07.212Z,5.93
2022-08-16T23:03:34.191Z,7.40
2022-08-16T23:06:00.957Z,6.88
2022-08-16T23:08:35.021Z,6.85
2022-08-16T23:11:13.770Z,7.78
2022-08-16T23:13:53.320Z,8.23
2022-08-16T23:16:33.588Z,6.97
2022-08-16T23:19:11.060Z,5.95
2022-08-16T23:21:40.741Z,6.60
2022-08-16T23:24:08.418Z,6.47
2022-08-16T23:26:45.140Z,7.13
2022-08-16T23:29:24.974Z,7.28
2022-08-16T23:32:10.774Z,7.00
2022-08-16T23:34:37.444Z,7.10
2022-08-16T23:37:05.051Z,6.38
2022-08-16T23:39:31.766Z,7.47
2022-08-16T23:41:58.806Z,7.03
2022-08-16T23:44:57.127Z,6.68
2022-08-16T23:47:12.117Z,7.63
2022-08-16T23:49:58.177Z,6.80
2022-08-16T23:52:53.071Z,6.73
2022-08-16T23:55:12.695Z,7.82
2022-08-16T23:57:39.315Z,8.52
